Time;durP1;ratioP1;P1;durP2;ratioP2;P2;SDS_P1;SDS_P2;PMS_P1;PMS_P2;Temp;Humidity;BMP_temperature;BMP_pressure;BME280_temperature;BME280_humidity;BME280_pressure;Samples;Min_cycle;Max_cycle;Signal;HPM_P1;HPM_P2
2021/07/28 00:00:22;;;;;;;16.57;10.32;;;;;;;21.36;81.31;99834.94;2725333;87;21369;-65
2021/07/28 00:04:25;;;;;;;12.95;9.23;;;;;;;21.29;81.30;99832.77;2725178;87;21051;-65
2021/07/28 00:08:28;;;;;;;13.40;8.18;;;;;;;21.21;81.53;99835.16;2725031;86;21127;-66
2021/07/28 00:12:31;;;;;;;15.93;9.93;;;;;;;21.15;81.97;99825.17;2724991;86;21090;-66
2021/07/28 00:16:33;;;;;;;14.87;9.48;;;;;;;21.13;81.90;99822.66;2725028;86;21055;-64
2021/07/28 00:24:37;;;;;;;15.85;9.30;;;;;;;20.87;84.76;99799.12;2724842;87;21051;-66
2021/07/28 00:28:39;;;;;;;17.48;11.00;;;;;;;20.66;84.19;99807.19;2724919;87;21067;-64
2021/07/28 00:32:41;;;;;;;23.05;10.50;;;;;;;20.31;85.65;99819.93;2724759;87;21115;-64
2021/07/28 00:36:43;;;;;;;18.15;10.18;;;;;;;20.13;86.87;99811.85;2717717;86;21541;-65
2021/07/28 00:40:45;;;;;;;15.35;10.28;;;;;;;20.22;87.02;99817.92;2717231;87;21059;-66
2021/07/28 00:44:47;;;;;;;16.57;9.28;;;;;;;20.33;86.71;99815.16;2716919;87;21107;-65
2021/07/28 00:48:51;;;;;;;18.35;9.63;;;;;;;20.46;86.40;99811.70;2716844;87;21095;-65
2021/07/28 00:52:53;;;;;;;13.93;8.43;;;;;;;20.59;85.63;99810.37;2716948;87;20992;-64
2021/07/28 00:56:56;;;;;;;16.70;10.78;;;;;;;20.63;84.66;99813.50;2717003;87;21060;-65
2021/07/28 01:00:57;;;;;;;13.90;9.28;;;;;;;20.67;84.42;99806.14;2717007;87;21581;-66
2021/07/28 01:04:59;;;;;;;20.57;10.82;;;;;;;20.59;85.02;99802.26;2716486;86;21083;-66
2021/07/28 01:09:01;;;;;;;19.05;10.23;;;;;;;20.55;85.78;99791.55;2716740;87;21055;-65
2021/07/28 01:13:04;;;;;;;21.65;12.03;;;;;;;20.51;86.42;99783.02;2721408;86;21056;-64
2021/07/28 01:17:07;;;;;;;13.80;9.38;;;;;;;20.47;86.81;99779.06;2702405;86;21052;-64
2021/07/28 01:21:11;;;;;;;18.85;10.32;;;;;;;20.54;87.10;99785.84;2696397;88;21000;-65
2021/07/28 01:25:13;;;;;;;19.12;10.40;;;;;;;20.54;87.33;99784.48;2641744;89;21127;-66
2021/07/28 01:29:15;;;;;;;15.75;10.03;;;;;;;20.65;87.57;99794.71;2642027;90;21078;-66
2021/07/28 01:33:17;;;;;;;15.25;9.05;;;;;;;20.77;87.57;99798.15;2617394;91;21891;-64
2021/07/28 01:37:20;;;;;;;15.75;10.98;;;;;;;20.76;86.75;99781.11;2620513;90;21092;-65
2021/07/28 01:41:22;;;;;;;13.75;9.13;;;;;;;20.71;87.20;99778.17;2620550;91;21548;-66
2021/07/28 01:45:24;;;;;;;15.58;9.58;;;;;;;20.69;87.20;99782.45;2620712;91;21028;-66
2021/07/28 01:49:26;;;;;;;14.30;9.18;;;;;;;20.76;87.63;99776.22;2620666;91;21067;-66
2021/07/28 01:53:29;;;;;;;12.93;9.45;;;;;;;20.84;86.90;99781.47;2621065;91;21071;-64
2021/07/28 01:57:32;;;;;;;16.10;9.13;;;;;;;20.84;86.57;99774.72;2621251;91;21016;-66
2021/07/28 02:01:34;;;;;;;15.18;8.25;;;;;;;20.91;86.81;99775.55;2621055;91;21075;-65
2021/07/28 02:05:40;;;;;;;14.40;9.60;;;;;;;20.97;86.35;99769.30;2596348;89;21139;-65
2021/07/28 02:09:42;;;;;;;11.38;9.00;;;;;;;20.93;85.58;99778.87;2620996;91;21031;-65
2021/07/28 02:13:43;;;;;;;16.17;9.55;;;;;;;20.91;85.61;99770.64;2621020;91;21047;-66
2021/07/28 02:17:48;;;;;;;13.25;8.73;;;;;;;20.89;85.91;99778.13;2620630;91;21087;-65
2021/07/28 02:21:50;;;;;;;12.25;8.90;;;;;;;20.89;85.63;99775.42;2620565;91;21083;-65
2021/07/28 02:25:52;;;;;;;11.63;8.65;;;;;;;20.81;85.77;99773.75;2620642;91;21076;-64
2021/07/28 02:29:54;;;;;;;12.55;10.08;;;;;;;20.72;86.05;99765.51;2620668;91;21031;-64
2021/07/28 02:33:56;;;;;;;12.15;8.93;;;;;;;20.67;86.92;99760.21;2620912;91;21063;-64
2021/07/28 02:37:59;;;;;;;17.20;9.70;;;;;;;20.68;87.22;99765.92;2620704;90;21048;-64
2021/07/28 02:42:00;;;;;;;12.25;9.25;;;;;;;20.61;87.06;99765.59;2620744;91;21072;-65
2021/07/28 02:46:02;;;;;;;13.80;9.48;;;;;;;20.52;87.37;99771.17;2620644;91;21561;-66
2021/07/28 02:50:06;;;;;;;12.80;9.28;;;;;;;20.52;87.60;99771.17;2620835;91;21052;-66
2021/07/28 02:54:08;;;;;;;15.68;8.40;;;;;;;20.59;88.02;99765.78;2620775;91;21096;-66
2021/07/28 02:58:12;;;;;;;12.98;9.65;;;;;;;20.69;87.50;99760.83;2620775;91;21025;-65
2021/07/28 03:02:14;;;;;;;13.35;9.10;;;;;;;20.81;87.16;99765.14;2620669;91;21100;-65
2021/07/28 03:06:16;;;;;;;12.33;8.73;;;;;;;20.83;86.02;99763.56;2620478;89;21164;-66
2021/07/28 03:10:18;;;;;;;12.98;8.83;;;;;;;20.88;86.69;99770.55;2620679;91;21546;-66
2021/07/28 03:14:20;;;;;;;16.25;9.93;;;;;;;20.87;85.94;99770.25;2620929;91;21032;-64
2021/07/28 03:18:22;;;;;;;19.87;9.85;;;;;;;20.89;86.03;99774.08;2620761;91;21605;-63
2021/07/28 03:22:25;;;;;;;14.93;9.13;;;;;;;20.90;84.79;99768.48;2620731;91;21096;-63
2021/07/28 03:26:30;;;;;;;16.02;8.88;;;;;;;20.75;84.15;99756.48;2620636;91;21072;-63
2021/07/28 03:30:31;;;;;;;19.05;11.12;;;;;;;20.44;84.83;99756.52;2620646;91;21092;-64
2021/07/28 03:34:33;;;;;;;14.15;9.80;;;;;;;20.30;87.06;99750.75;2620574;90;21071;-64
2021/07/28 03:38:35;;;;;;;17.20;11.00;;;;;;;20.29;88.44;99749.94;2620018;91;21047;-63
2021/07/28 03:42:37;;;;;;;18.55;10.82;;;;;;;20.39;89.03;99753.06;2619777;91;21655;-64
2021/07/28 03:46:38;;;;;;;16.35;9.08;;;;;;;20.52;89.26;99752.80;2620032;91;21084;-63
2021/07/28 03:50:40;;;;;;;22.32;11.20;;;;;;;20.64;88.90;99756.57;2619948;91;21059;-64
2021/07/28 03:54:43;;;;;;;15.65;9.90;;;;;;;20.68;88.50;99765.92;2619788;91;21052;-63
2021/07/28 03:58:53;;;;;;;12.78;8.88;;;;;;;20.67;88.26;99775.07;2619801;91;21056;-64
2021/07/28 04:02:55;;;;;;;13.95;9.75;;;;;;;20.62;88.77;99772.13;2620047;91;21052;-63
2021/07/28 04:06:58;;;;;;;15.60;9.83;;;;;;;20.67;88.96;99757.50;2619776;89;21619;-64
2021/07/28 04:11:00;;;;;;;17.35;10.45;;;;;;;20.84;89.11;99767.95;2619915;91;21080;-63
2021/07/28 04:15:03;;;;;;;18.90;11.38;;;;;;;20.92;88.92;99770.95;2620168;91;21130;-65
2021/07/28 04:19:05;;;;;;;18.37;9.78;;;;;;;21.25;89.78;99764.73;2619779;91;21100;-64
2021/07/28 04:23:06;;;;;;;13.32;9.25;;;;;;;21.66;87.16;99769.61;2620128;91;21043;-65
2021/07/28 04:27:08;;;;;;;14.13;10.32;;;;;;;21.69;85.38;99754.29;2619925;91;21083;-64
2021/07/28 04:31:10;;;;;;;29.63;10.35;;;;;;;21.70;85.79;99749.19;2620110;91;21091;-64
2021/07/28 04:35:13;;;;;;;17.37;11.15;;;;;;;21.78;85.70;99754.35;2619732;90;21119;-63
2021/07/28 04:39:17;;;;;;;14.30;10.43;;;;;;;21.88;86.12;99753.09;2619733;91;21033;-63
2021/07/28 04:43:18;;;;;;;15.15;10.13;;;;;;;22.26;89.65;99755.02;2620364;91;21094;-64
2021/07/28 04:47:22;;;;;;;17.67;9.78;;;;;;;23.39;91.06;99757.19;2620604;91;21060;-65
2021/07/28 04:51:23;;;;;;;18.32;11.53;;;;;;;24.08;84.05;99746.20;2620748;90;21091;-64
2021/07/28 04:55:25;;;;;;;13.35;11.30;;;;;;;24.89;81.15;99739.63;2620775;91;21055;-64
2021/07/28 04:59:27;;;;;;;11.60;8.35;;;;;;;25.53;78.52;99746.31;2621371;91;21127;-63
2021/07/28 05:03:28;;;;;;;10.28;8.40;;;;;;;26.30;75.23;99740.25;2621845;91;21098;-63
2021/07/28 05:07:30;;;;;;;11.33;8.48;;;;;;;26.75;72.81;99744.61;2621371;89;21620;-64
2021/07/28 05:11:32;;;;;;;10.08;8.23;;;;;;;26.49;70.50;99745.50;2621818;91;21047;-64
2021/07/28 05:15:34;;;;;;;10.20;7.72;;;;;;;26.05;70.50;99741.95;2621492;91;21108;-64
2021/07/28 05:19:48;;;;;;;10.70;8.38;;;;;;;25.72;72.48;99744.25;2621264;91;21021;-63
2021/07/28 05:23:53;;;;;;;14.40;8.88;;;;;;;25.62;73.52;99744.05;2621030;90;21075;-63
2021/07/28 05:27:58;;;;;;;12.68;7.45;;;;;;;25.62;74.25;99744.86;2620712;90;21115;-65
2021/07/28 05:32:01;;;;;;;15.85;8.50;;;;;;;25.72;73.56;99746.16;2621193;91;21061;-65
2021/07/28 05:36:06;;;;;;;12.58;8.60;;;;;;;25.63;72.94;99747.06;2621082;90;21048;-65
2021/07/28 05:40:10;;;;;;;14.07;8.63;;;;;;;25.50;73.34;99746.79;2621218;91;21063;-65
2021/07/28 05:44:11;;;;;;;11.88;9.50;;;;;;;25.42;74.35;99741.14;2621081;91;21059;-64
2021/07/28 05:48:20;;;;;;;10.32;7.00;;;;;;;25.20;75.21;99743.10;2620620;90;21576;-64
2021/07/28 05:52:21;;;;;;;8.88;7.80;;;;;;;25.02;75.37;99737.77;2620977;90;21064;-66
2021/07/28 05:56:23;;;;;;;12.28;7.08;;;;;;;24.84;75.20;99744.95;2621003;91;21063;-61
2021/07/28 06:00:29;;;;;;;9.63;6.67;;;;;;;24.80;75.69;99751.92;2620990;91;21092;-63
2021/07/28 06:04:30;;;;;;;8.68;6.10;;;;;;;24.79;75.90;99748.91;2621188;91;21084;-64
2021/07/28 06:08:32;;;;;;;8.28;6.97;;;;;;;25.08;77.49;99746.33;2621209;89;21074;-62
2021/07/28 06:12:34;;;;;;;9.48;7.78;;;;;;;25.91;76.84;99730.47;2621974;91;21067;-61
2021/07/28 06:16:39;;;;;;;8.88;7.90;;;;;;;26.74;74.32;99719.77;2621468;91;21032;-63
2021/07/28 06:20:42;;;;;;;13.60;7.05;;;;;;;27.71;68.95;99728.33;2602608;91;29345;-62
2021/07/28 06:24:43;;;;;;;14.75;7.60;;;;;;;28.17;66.02;99720.69;2621541;91;21706;-63
2021/07/28 06:28:45;;;;;;;9.13;6.75;;;;;;;28.27;65.24;99719.97;2621839;91;21061;-64
2021/07/28 06:32:47;;;;;;;8.65;6.62;;;;;;;28.61;64.30;99728.52;2621894;91;21051;-63
2021/07/28 06:36:51;;;;;;;7.33;6.53;;;;;;;29.02;63.76;99719.83;2622352;90;21068;-62
2021/07/28 06:40:54;;;;;;;7.67;5.83;;;;;;;29.56;64.54;99709.77;2622890;91;21071;-63
2021/07/28 06:44:56;;;;;;;7.33;5.83;;;;;;;30.33;60.67;99703.19;2623145;91;21040;-63
2021/07/28 06:48:59;;;;;;;9.05;5.40;;;;;;;30.63;58.90;99704.31;2623204;91;21084;-63
2021/07/28 06:53:00;;;;;;;9.20;5.00;;;;;;;30.69;57.54;99714.75;2623240;91;21067;-64
2021/07/28 06:57:03;;;;;;;10.98;6.85;;;;;;;30.46;58.17;99717.45;2623068;91;21518;-62
2021/07/28 07:01:07;;;;;;;9.33;6.97;;;;;;;30.71;58.41;99717.23;2623276;91;21064;-64
2021/07/28 07:05:11;;;;;;;7.95;6.53;;;;;;;30.87;57.37;99716.67;2623540;89;21008;-62
2021/07/28 07:09:13;;;;;;;10.80;5.37;;;;;;;30.81;56.97;99709.55;2623639;91;21063;-62
2021/07/28 07:13:15;;;;;;;6.95;5.35;;;;;;;30.80;56.99;99707.34;2623600;91;21060;-63
2021/07/28 07:17:17;;;;;;;10.35;4.67;;;;;;;30.92;57.37;99709.80;2623353;91;21088;-63
2021/07/28 07:21:18;;;;;;;5.05;4.03;;;;;;;31.30;58.39;99711.69;2623450;91;21032;-63
2021/07/28 07:25:20;;;;;;;7.90;4.65;;;;;;;31.85;55.93;99708.78;2623495;91;21025;-62
2021/07/28 07:29:23;;;;;;;8.35;4.45;;;;;;;32.15;54.96;99695.41;2623502;91;21080;-63
2021/07/28 07:33:38;;;;;;;4.58;4.03;;;;;;;32.31;53.79;99687.86;2623625;91;21060;-63
2021/07/28 07:37:41;;;;;;;8.83;3.98;;;;;;;31.99;54.24;99697.41;2622674;90;21064;-63
2021/07/28 07:41:42;;;;;;;6.25;3.90;;;;;;;32.06;55.93;99686.09;2654272;89;21023;-64
2021/07/28 07:45:44;;;;;;;5.92;3.92;;;;;;;32.45;54.91;99683.13;2678551;89;21314;-62
2021/07/28 07:49:47;;;;;;;4.50;4.10;;;;;;;32.85;54.47;99685.25;2678346;89;21039;-63
2021/07/28 07:53:49;;;;;;;5.15;2.90;;;;;;;33.11;50.93;99685.02;2678220;89;21060;-64
2021/07/28 07:58:03;;;;;;;5.03;3.70;;;;;;;33.30;52.10;99682.88;2677926;89;21077;-65
2021/07/28 08:02:05;;;;;;;3.62;3.33;;;;;;;33.36;49.78;99681.70;2678240;89;21067;-62
2021/07/28 08:06:09;;;;;;;6.97;4.62;;;;;;;33.12;51.55;99682.52;2678074;87;21131;-63
2021/07/28 08:10:12;;;;;;;4.42;3.80;;;;;;;33.02;49.77;99681.27;2678206;89;21047;-63
2021/07/28 08:14:14;;;;;;;3.65;3.35;;;;;;;32.97;51.03;99686.81;2678359;89;21007;-63
2021/07/28 08:18:15;;;;;;;7.92;3.47;;;;;;;33.34;50.20;99693.58;2678269;89;21055;-63
2021/07/28 08:22:17;;;;;;;14.78;3.90;;;;;;;33.36;48.98;99689.16;2678196;89;21031;-63
2021/07/28 08:26:21;;;;;;;4.72;3.10;;;;;;;32.75;48.65;99689.47;2678070;89;21067;-64
2021/07/28 08:30:23;;;;;;;3.83;3.05;;;;;;;32.05;49.24;99684.45;2678030;89;21159;-64
2021/07/28 08:34:25;;;;;;;4.87;2.72;;;;;;;31.32;50.31;99698.48;2677982;89;21091;-63
2021/07/28 08:38:27;;;;;;;3.67;3.37;;;;;;;30.97;51.56;99702.11;2670927;89;21079;-64
2021/07/28 08:42:29;;;;;;;8.30;4.03;;;;;;;30.72;52.21;99702.41;2666626;89;21031;-64
2021/07/28 08:46:33;;;;;;;8.15;3.95;;;;;;;30.64;53.22;99696.92;2666954;89;21028;-63
2021/07/28 08:50:36;;;;;;;5.90;4.25;;;;;;;30.84;53.67;99694.70;2643863;89;21035;-64
2021/07/28 08:54:38;;;;;;;6.37;4.15;;;;;;;30.98;52.29;99689.49;2666555;88;20993;-63
2021/07/28 08:58:41;;;;;;;7.15;3.98;;;;;;;31.01;52.61;99693.05;2666452;89;21083;-63
2021/07/28 09:02:44;;;;;;;7.10;4.00;;;;;;;31.02;53.46;99695.23;2666489;89;21048;-64
2021/07/28 09:06:54;;;;;;;6.95;4.35;;;;;;;31.12;54.05;99707.59;2666446;88;21765;-63
2021/07/28 09:11:06;;;;;;;7.00;4.37;;;;;;;31.25;54.04;99716.36;2666405;89;21036;-64
2021/07/28 09:15:10;;;;;;;5.30;3.55;;;;;;;31.22;54.32;99712.27;2666651;88;21092;-61
2021/07/28 09:19:12;;;;;;;4.33;3.80;;;;;;;31.12;52.13;99710.87;2667014;88;21014;-62
2021/07/28 09:23:14;;;;;;;7.80;4.60;;;;;;;31.17;52.12;99710.31;2667089;89;21061;-63
2021/07/28 09:27:44;;;;;;;5.87;4.12;;;;;;;31.04;51.90;99725.98;2666844;89;21650;-62
2021/07/28 09:31:52;;;;;;;4.80;4.30;;;;;;;30.97;52.99;99732.31;2666234;89;21035;-63
2021/07/28 09:36:05;;;;;;;9.03;4.85;;;;;;;30.92;52.36;99727.11;2667019;88;21024;-63
2021/07/28 09:40:11;;;;;;;10.32;3.98;;;;;;;30.90;52.75;99725.72;2677985;88;21565;-63
2021/07/28 09:44:32;;;;;;;5.03;4.10;;;;;;;30.81;52.98;99725.45;2676397;89;21103;-63
2021/07/28 09:49:00;;;;;;;5.83;3.58;;;;;;;30.69;53.15;99721.61;2677974;89;21577;-63
2021/07/28 09:53:08;;;;;;;249.25;47.23;;;;;;;30.70;54.21;99724.63;2677378;89;21060;-65
2021/07/28 09:57:21;;;;;;;5.58;4.45;;;;;;;30.99;53.78;99721.88;2678034;89;21000;-63
2021/07/28 10:01:25;;;;;;;7.08;4.35;;;;;;;31.33;52.66;99712.49;2678332;89;21058;-63
2021/07/28 10:05:28;;;;;;;6.17;4.50;;;;;;;31.52;53.20;99714.63;2677937;87;21079;-63
2021/07/28 10:09:43;;;;;;;4.40;3.70;;;;;;;31.69;52.75;99704.70;2677912;89;21115;-64
2021/07/28 10:13:46;;;;;;;6.67;5.20;;;;;;;31.81;51.78;99706.30;2677699;89;21047;-64
2021/07/28 10:17:52;;;;;;;6.28;4.12;;;;;;;31.97;51.61;99698.82;2677438;89;21023;-63
2021/07/28 10:21:55;;;;;;;10.72;4.30;;;;;;;32.21;52.49;99693.42;2677978;89;21063;-64
2021/07/28 10:25:57;;;;;;;15.25;5.00;;;;;;;32.31;51.01;99686.48;2678124;89;21098;-65
2021/07/28 10:30:07;;;;;;;6.55;4.78;;;;;;;32.14;50.88;99684.14;2678628;89;21079;-63
2021/07/28 10:34:30;;;;;;;8.53;4.40;;;;;;;32.09;50.65;99687.47;2678556;89;21064;-62
2021/07/28 10:38:37;;;;;;;6.03;4.55;;;;;;;32.17;50.17;99689.61;2677469;89;21576;-64
2021/07/28 10:42:44;;;;;;;5.33;4.60;;;;;;;32.45;50.87;99680.37;2676025;89;21027;-63
2021/07/28 10:47:12;;;;;;;6.03;3.95;;;;;;;32.62;50.21;99678.03;2678003;89;21114;-63
2021/07/28 10:51:52;;;;;;;6.85;3.75;;;;;;;32.59;49.02;99676.40;2677356;89;21087;-63
2021/07/28 10:55:59;;;;;;;9.15;4.53;;;;;;;32.75;48.45;99667.44;2677759;89;21110;-64
2021/07/28 11:00:01;;;;;;;6.17;4.42;;;;;;;32.68;48.90;99664.21;2675956;88;21597;-63
2021/07/28 11:04:25;;;;;;;5.15;3.50;;;;;;;32.38;49.83;99670.23;2677801;89;21122;-63
2021/07/28 11:08:31;;;;;;;6.22;4.15;;;;;;;32.17;49.51;99667.59;2677548;87;21127;-63
2021/07/28 11:12:33;;;;;;;7.95;3.55;;;;;;;32.10;50.41;99670.66;2678012;89;21019;-64
2021/07/28 11:16:34;;;;;;;7.28;5.72;;;;;;;32.00;49.95;99672.92;2678271;89;21056;-63
2021/07/28 11:20:39;;;;;;;9.63;4.78;;;;;;;31.83;51.74;99680.72;2678418;89;21070;-63
2021/07/28 11:24:41;;;;;;;8.15;6.05;;;;;;;31.36;53.57;99689.71;2678286;89;21012;-62
2021/07/28 11:28:54;;;;;;;6.45;4.65;;;;;;;30.83;54.55;99687.56;2678080;89;21047;-63
2021/07/28 11:33:16;;;;;;;5.87;5.00;;;;;;;30.63;55.06;99693.34;2678264;89;21101;-63
2021/07/28 11:37:21;;;;;;;7.30;5.28;;;;;;;30.74;55.23;99690.61;2676445;89;21032;-62
2021/07/28 11:41:23;;;;;;;8.88;5.28;;;;;;;30.90;54.28;99692.25;2667107;88;21080;-62
2021/07/28 11:45:43;;;;;;;6.87;4.83;;;;;;;30.93;54.15;99683.98;2666827;88;21059;-62
2021/07/28 11:50:01;;;;;;;10.68;5.12;;;;;;;30.91;54.46;99696.63;2666760;89;21004;-64
2021/07/28 11:54:17;;;;;;;17.65;6.15;;;;;;;30.76;55.02;99688.41;2665282;89;21036;-62
2021/07/28 11:58:20;;;;;;;6.45;4.90;;;;;;;30.64;54.97;99692.24;2666502;88;21063;-63
2021/07/28 12:02:22;;;;;;;7.47;4.58;;;;;;;30.49;55.53;99694.41;2666720;89;21059;-63
2021/07/28 12:06:37;;;;;;;9.38;5.53;;;;;;;30.41;55.98;99690.02;2666034;88;21075;-62
2021/07/28 12:10:39;;;;;;;7.33;6.08;;;;;;;30.36;56.29;99693.56;2666679;88;21064;-63
2021/07/28 12:14:43;;;;;;;6.03;5.35;;;;;;;30.31;56.94;99687.55;2667026;89;21023;-64
2021/07/28 12:18:49;;;;;;;;;;;;;;;30.32;57.23;99694.68;2668860;89;21048;-62
2021/07/28 12:22:56;;;;;;;12.35;5.47;;;;;;;30.43;56.30;99694.14;2666287;88;20118;-63
2021/07/28 12:27:27;;;;;;;5.60;4.97;;;;;;;30.53;57.30;99688.37;2666417;88;21035;-64
2021/07/28 12:31:30;;;;;;;7.37;5.78;;;;;;;30.62;56.56;99687.58;2642156;89;21142;-64
2021/07/28 12:35:47;;;;;;;6.10;5.08;;;;;;;30.60;56.12;99684.26;2666692;88;21004;-62
2021/07/28 12:39:58;;;;;;;10.13;5.70;;;;;;;30.74;55.69;99676.88;2674391;88;21047;-63
2021/07/28 12:44:01;;;;;;;5.95;5.35;;;;;;;30.92;55.12;99685.92;2678368;89;21095;-62
2021/07/28 12:48:05;;;;;;;11.20;5.78;;;;;;;31.12;54.84;99685.61;2678656;89;21072;-62
2021/07/28 12:52:07;;;;;;;8.43;6.17;;;;;;;31.33;54.86;99680.09;2678192;89;21024;-63
2021/07/28 12:56:08;;;;;;;8.43;6.05;;;;;;;31.51;55.75;99681.39;2678087;89;21043;-63
2021/07/28 13:00:12;;;;;;;7.33;5.47;;;;;;;31.74;54.43;99670.30;2677779;89;21055;-62
2021/07/28 13:04:15;;;;;;;5.53;5.03;;;;;;;31.73;54.06;99674.69;2678167;89;21035;-62
2021/07/28 13:08:26;;;;;;;8.80;5.75;;;;;;;31.57;54.04;99668.45;2677783;87;21158;-63
2021/07/28 13:12:28;;;;;;;7.78;5.28;;;;;;;31.52;54.96;99673.98;2678055;89;21048;-61
2021/07/28 13:16:32;;;;;;;5.62;5.12;;;;;;;31.57;53.81;99673.95;2677997;89;21031;-63
2021/07/28 13:20:34;;;;;;;9.98;5.12;;;;;;;31.57;54.54;99675.33;2678585;89;21059;-63
2021/07/28 13:24:36;;;;;;;7.95;5.37;;;;;;;31.32;54.23;99680.63;2678857;89;20988;-62
2021/07/28 13:28:41;;;;;;;8.18;5.28;;;;;;;31.12;54.93;99681.49;2678457;89;21050;-63
2021/07/28 13:32:43;;;;;;;13.18;6.87;;;;;;;31.15;54.75;99682.84;2678362;89;21023;-62
2021/07/28 13:37:06;;;;;;;7.97;5.30;;;;;;;31.39;54.56;99673.47;2678584;89;21065;-62
2021/07/28 13:41:08;;;;;;;9.65;5.83;;;;;;;31.60;54.97;99659.11;2678360;89;21062;-62
2021/07/28 13:45:13;;;;;;;9.60;5.62;;;;;;;31.66;53.03;99654.95;2678347;89;21070;-62
2021/07/28 13:49:36;;;;;;;8.13;5.50;;;;;;;31.28;53.79;99672.68;2682315;88;21025;-59
2021/07/28 13:53:39;;;;;;;10.05;5.40;;;;;;;31.01;54.15;99676.58;2684577;88;21485;-59
2021/07/28 13:57:41;;;;;;;8.95;6.42;;;;;;;30.73;54.95;99676.61;2684501;88;21023;-59
2021/07/28 14:01:43;;;;;;;16.23;6.22;;;;;;;30.62;56.37;99677.17;2684504;88;21094;-58
2021/07/28 14:05:44;;;;;;;6.45;5.33;;;;;;;30.87;55.26;99659.86;2684203;87;21044;-58
2021/07/28 14:09:54;;;;;;;7.92;6.00;;;;;;;31.21;54.36;99669.42;2684518;88;21091;-59
2021/07/28 14:13:58;;;;;;;9.45;5.87;;;;;;;31.38;54.71;99656.72;2684395;88;21078;-58
2021/07/28 14:18:02;;;;;;;6.37;4.85;;;;;;;31.33;54.15;99663.05;2684695;88;21039;-58
2021/07/28 14:22:05;;;;;;;;;;;;;;;31.41;54.05;99661.64;2687035;88;21048;-59
2021/07/28 14:26:17;;;;;;;7.55;5.03;;;;;;;31.47;53.00;99674.28;2753597;86;20121;-59
2021/07/28 14:30:20;;;;;;;20.43;6.10;;;;;;;31.40;53.66;99681.98;2753223;85;21075;-57
2021/07/28 14:34:22;;;;;;;5.83;4.62;;;;;;;31.10;53.91;99671.34;2753030;86;21004;-57
2021/07/28 14:38:23;;;;;;;8.30;5.33;;;;;;;30.80;54.47;99670.28;2751628;86;20999;-57
2021/07/28 14:42:25;;;;;;;6.80;4.92;;;;;;;30.54;55.12;99667.53;2748532;85;21023;-58
2021/07/28 14:46:28;;;;;;;11.50;6.03;;;;;;;30.30;56.13;99673.56;2748488;86;21035;-58
2021/07/28 14:50:29;;;;;;;5.15;4.28;;;;;;;30.21;56.95;99684.25;2739586;85;21060;-58
2021/07/28 14:54:35;;;;;;;6.75;5.05;;;;;;;30.42;56.75;99683.43;2735111;87;21069;-59
2021/07/28 14:58:48;;;;;;;9.73;5.58;;;;;;;30.68;56.05;99688.41;2705105;88;21051;-58
2021/07/28 15:02:51;;;;;;;6.12;4.17;;;;;;;30.66;55.95;99693.35;2703891;88;21060;-59
2021/07/28 15:12:27;;;;;;;5.50;3.50;;;;;;;29.81;56.53;99698.63;2704663;88;21132;-59
2021/07/28 15:17:05;;;;;;;6.50;4.40;;;;;;;29.15;56.99;99721.28;2704166;88;21523;-59
2021/07/28 15:21:07;;;;;;;4.72;4.20;;;;;;;28.81;58.01;99714.76;2704505;88;21065;-59
2021/07/28 15:25:10;;;;;;;5.83;4.05;;;;;;;28.32;59.15;99713.20;2704303;88;20976;-58
2021/07/28 15:29:49;;;;;;;4.95;4.37;;;;;;;28.53;60.31;99743.48;2704491;88;20968;-59
2021/07/28 15:33:52;;;;;;;3.80;3.37;;;;;;;28.71;59.37;99738.16;2704393;88;21052;-58
2021/07/28 15:38:27;;;;;;;5.50;3.72;;;;;;;28.59;59.58;99743.81;2704639;88;21004;-59
2021/07/28 15:42:30;;;;;;;10.32;4.80;;;;;;;28.51;59.88;99743.73;2703085;87;21035;-59
2021/07/28 15:47:06;;;;;;;8.20;4.42;;;;;;;28.34;60.13;99743.02;2713198;88;20992;-58
2021/07/28 15:51:08;;;;;;;6.35;4.58;;;;;;;28.07;60.12;99744.61;2713595;88;21031;-58
2021/07/28 15:55:13;;;;;;;5.37;4.30;;;;;;;27.66;60.83;99760.49;2713615;88;20976;-59
2021/07/28 15:59:47;;;;;;;6.62;3.95;;;;;;;27.20;61.55;99764.19;2713473;88;21024;-59
2021/07/28 16:03:49;;;;;;;5.15;4.37;;;;;;;26.80;62.02;99767.88;2713321;88;21036;-59
2021/07/28 16:07:54;;;;;;;40.95;13.62;;;;;;;26.45;62.78;99767.52;2712803;88;21059;-59
2021/07/28 16:11:56;;;;;;;9.53;4.72;;;;;;;26.29;63.47;99775.41;2712611;88;21023;-59
2021/07/28 16:15:58;;;;;;;42.65;12.28;;;;;;;26.12;63.57;99790.31;2712606;88;20984;-59
2021/07/28 16:20:20;;;;;;;9.05;5.08;;;;;;;25.96;63.79;99789.17;2712790;88;21048;-59
2021/07/28 16:24:28;;;;;;;4.97;3.72;;;;;;;25.88;64.29;99793.62;2695500;88;21071;-59
2021/07/28 16:28:36;;;;;;;13.95;4.33;;;;;;;25.77;64.90;99801.58;2712463;88;21049;-59
2021/07/28 16:32:38;;;;;;;23.27;7.83;;;;;;;25.64;65.32;99801.27;2712627;88;21035;-59
2021/07/28 16:36:44;;;;;;;33.25;9.28;;;;;;;25.56;65.63;99798.11;2712194;88;21051;-59
2021/07/28 16:40:46;;;;;;;6.05;4.22;;;;;;;25.46;66.34;99806.84;2704801;87;21036;-59
2021/07/28 16:44:48;;;;;;;21.12;7.08;;;;;;;25.38;66.44;99799.84;2692407;88;21087;-59
2021/07/28 16:48:53;;;;;;;9.05;5.22;;;;;;;25.27;66.91;99784.33;2665741;88;21072;-59
2021/07/28 16:52:57;;;;;;;6.35;4.53;;;;;;;25.19;67.54;99774.09;2692043;88;21046;-61
2021/07/28 16:56:59;;;;;;;33.25;10.03;;;;;;;25.16;68.36;99777.30;2666248;89;21085;-60
2021/07/28 17:01:01;;;;;;;12.85;5.50;;;;;;;25.18;68.81;99784.69;2692038;88;21071;-59
2021/07/28 17:05:08;;;;;;;6.47;4.70;;;;;;;25.24;69.41;99788.34;2665443;88;21095;-61
2021/07/28 17:09:40;;;;;;;6.30;4.12;;;;;;;25.30;69.60;99791.50;2692603;88;21419;-59
2021/07/28 17:13:42;;;;;;;8.50;5.12;;;;;;;25.32;69.52;99798.05;2666556;89;20969;-60
2021/07/28 17:18:24;;;;;;;7.70;4.33;;;;;;;25.22;69.63;99810.87;2692237;88;21101;-59
2021/07/28 17:22:34;;;;;;;12.85;5.33;;;;;;;25.18;69.28;99809.70;2666377;89;21084;-59
2021/07/28 17:27:04;;;;;;;18.27;5.65;;;;;;;25.10;68.95;99803.55;2691156;88;21584;-59
2021/07/28 17:31:10;;;;;;;5.25;3.45;;;;;;;24.98;69.47;99805.95;2692051;88;21109;-60
2021/07/28 17:35:51;;;;;;;4.87;4.37;;;;;;;24.76;70.39;99806.45;2693020;88;21460;-60
2021/07/28 17:40:31;;;;;;;6.10;4.22;;;;;;;24.58;71.23;99780.98;2666663;89;21044;-60
2021/07/28 17:44:36;;;;;;;7.70;4.53;;;;;;;24.46;72.02;99782.27;2697573;87;21080;-60
2021/07/28 17:49:18;;;;;;;5.15;3.58;;;;;;;24.39;72.48;99781.02;2695539;88;21529;-61
2021/07/28 17:53:19;;;;;;;10.28;4.50;;;;;;;24.36;72.70;99780.64;2695789;88;21004;-61
2021/07/28 17:57:58;;;;;;;4.80;3.80;;;;;;;24.35;73.17;99806.16;2696112;88;21007;-61
2021/07/28 18:02:01;;;;;;;9.58;3.90;;;;;;;24.29;73.41;99802.47;2695564;88;21051;-59
2021/07/28 18:06:20;;;;;;;4.78;3.40;;;;;;;24.26;73.59;99801.57;2696408;88;20988;-59
2021/07/28 18:10:25;;;;;;;16.80;6.08;;;;;;;24.14;73.32;99796.59;2690376;88;21039;-59
2021/07/28 18:14:26;;;;;;;21.27;7.47;;;;;;;24.00;73.46;99792.66;2692009;87;21032;-61
2021/07/28 18:19:07;;;;;;;12.90;7.72;;;;;;;23.93;73.88;99783.75;2665922;89;21020;-61
2021/07/28 18:23:08;;;;;;;13.75;7.55;;;;;;;23.89;74.29;99799.69;2695760;88;21058;-60
2021/07/28 18:27:46;;;;;;;17.80;8.75;;;;;;;23.80;74.52;99810.52;2691984;88;21004;-61
2021/07/28 18:31:50;;;;;;;12.23;8.45;;;;;;;23.77;74.86;99818.58;2665628;89;21103;-61
2021/07/28 18:35:52;;;;;;;12.63;7.03;;;;;;;23.84;74.67;99801.41;2696003;88;21028;-60
2021/07/28 18:40:31;;;;;;;17.73;8.15;;;;;;;23.82;74.73;99825.55;2692495;88;20993;-61
2021/07/28 18:44:34;;;;;;;11.35;7.37;;;;;;;23.87;75.05;99839.79;2663511;89;21028;-61
2021/07/28 18:49:12;;;;;;;11.18;8.30;;;;;;;23.87;74.96;99841.69;2689211;88;21035;-60
2021/07/28 18:53:20;;;;;;;12.28;8.30;;;;;;;23.79;75.30;99845.02;2663425;89;21048;-61
2021/07/28 18:57:54;;;;;;;12.50;7.95;;;;;;;23.76;75.69;99842.72;2688778;88;21038;-60
2021/07/28 19:01:59;;;;;;;11.20;6.65;;;;;;;23.73;75.92;99839.10;2663485;89;21068;-60
2021/07/28 19:06:00;;;;;;;7.30;5.83;;;;;;;23.64;76.62;99849.95;2689018;88;21097;-60
2021/07/28 19:10:04;;;;;;;7.65;6.72;;;;;;;23.37;77.55;99837.95;2662108;89;21095;-60
2021/07/28 19:14:12;;;;;;;31.60;8.83;;;;;;;23.17;78.59;99843.53;2688711;88;21094;-60
2021/07/28 19:18:19;;;;;;;9.38;6.28;;;;;;;23.04;79.38;99852.59;2660710;89;21064;-60
2021/07/28 19:22:22;;;;;;;11.75;6.45;;;;;;;22.93;80.28;99861.72;2662424;89;21032;-61